Redwood City, CA

11:34 AM PDT on October 31, 2014 (GMT -0700)
Half Moon Bay | Change Station
CLOSE
Current Station
Airport
Location: Half Moon Bay,
Elevation: 66 ft
Nearby Weather Stations

Elev 66 ft 37.51 °N, 122.50 °W | Updated 19 minutes ago

Overcast
Overcast
57 °F
Feels Like 57 °F
N
17
Wind Variable Wind from NNW

Today
High -- | Low -- °F
--% Chance of Precip.
Yesterday
High -- | Low -- °F
Precip. -- in
7:32 AM 6:11 PM
First Quarter, 57% visible
Pressure 29.89 in
Visibility 0.8 miles
Clouds Overcast 400 ft
Dew Point 57 °F
Humidity 100%
Rainfall 0.06 in
Snow Depth Not available.
UV 1 out of 12
Pollen .50 out of 12
Air Quality Not available.
Flu Activity Not available.
METAR KHAF 311815Z AUTO 33015KT 3/4SM RA OVC004 14/14 A2989 RMK AO2

More Conditions Fewer Conditions

Pressure 29.89 in
Visibility 0.8 miles
Clouds Overcast 400 ft
Dew Point 57 °F
Humidity 100%
Rainfall 0.06 in
Snow Depth Not available.
UV 1 out of 12
Pollen .50 out of 12
Air Quality Not available.
Flu Activity Not available.
METAR KHAF 311815Z AUTO 33015KT 3/4SM RA OVC004 14/14 A2989 RMK AO2

More Conditions Fewer Conditions

10-Day Weather Forecast

Almanac

Astronomy

Oct. 31, 2014 Rise Set
Actual Time
Civil Twilight
Nautical Twilight
Astronomical Twilight
Moon
Length of Visible Light
Length of Day
Tomorrow will be .
, % of the Moon is Illuminated

Today's Extremes

State Highs State Lows

Community

WunderPhotos

Upload Photos

1,766,690 photos uploaded!

WunderBlogs® & News

Nearby

Air Quality

  Air Quality AQ Index Pollutant
Not available.

Snow Depth

Station Depth Elevation

Earthquake Activity

City Distance Mag. Time & Date
Minimum magnitude displayed is 2.5.

Coastal Water Temperatures

Place Temperature

Nearby Weather Stations